createdAt,value
2019-02-18T08:37:24.700Z,95836.55
2019-02-18T08:39:51.053Z,95833.84
2019-02-18T08:42:17.417Z,95831.09
2019-02-18T08:44:43.776Z,95833.77
2019-02-18T08:47:10.124Z,95825.68
2019-02-18T08:49:36.493Z,95826.92
2019-02-18T08:52:02.825Z,95826.69
2019-02-18T08:54:29.256Z,95832.00
2019-02-18T08:56:55.596Z,95830.11
2019-02-18T08:59:21.995Z,95826.39
2019-02-18T09:01:48.307Z,95825.68
2019-02-18T09:04:14.653Z,95829.65
2019-02-18T09:06:40.998Z,95830.41
2019-02-18T09:09:07.345Z,95825.59
2019-02-18T09:11:33.687Z,95826.09
2019-02-18T09:14:00.090Z,95830.70
2019-02-18T09:16:26.432Z,95826.75
2019-02-18T09:18:52.768Z,95823.84
2019-02-18T09:21:19.104Z,95822.13
2019-02-18T09:23:45.441Z,95821.84
2019-02-18T09:26:11.783Z,95827.07
2019-02-18T09:28:38.152Z,95821.98
2019-02-18T09:31:04.524Z,95817.47
2019-02-18T09:33:30.940Z,95812.39
2019-02-18T09:35:57.299Z,95809.78
2019-02-18T09:38:25.345Z,95814.66
2019-02-18T09:40:51.603Z,95804.80
2019-02-18T09:43:16.506Z,95805.57
2019-02-18T09:45:42.842Z,95801.14
2019-02-18T09:48:09.232Z,95801.12
2019-02-18T09:50:35.743Z,95796.11
2019-02-18T09:53:02.606Z,95793.87
2019-02-18T09:55:28.470Z,95800.16
2019-02-18T09:57:54.814Z,95793.05
2019-02-18T10:00:21.216Z,95790.46
2019-02-18T10:02:47.621Z,95784.91
2019-02-18T10:05:14.100Z,95781.59
2019-02-18T10:07:40.488Z,95779.63
2019-02-18T10:10:06.844Z,95774.88
2019-02-18T10:12:33.190Z,95764.69
2019-02-18T10:14:59.521Z,95766.83
2019-02-18T10:17:25.855Z,95764.64
2019-02-18T10:19:52.229Z,95765.73
2019-02-18T10:22:18.594Z,95755.04
2019-02-18T10:24:50.487Z,95752.80
2019-02-18T10:27:11.312Z,95752.73
2019-02-18T10:29:37.618Z,95745.03
2019-02-18T10:32:03.963Z,95744.01
2019-02-18T10:34:30.336Z,95741.45
2019-02-18T10:36:56.687Z,95740.89
2019-02-18T10:39:23.041Z,95736.89
2019-02-18T10:41:49.461Z,95732.85
2019-02-18T10:44:15.785Z,95730.78
2019-02-18T10:46:42.118Z,95722.20
2019-02-18T10:49:18.993Z,95716.98
2019-02-18T10:51:34.792Z,95722.61
2019-02-18T10:54:01.155Z,95717.98
2019-02-18T10:56:27.543Z,95713.70
2019-02-18T10:58:53.877Z,95707.66
2019-02-18T11:01:20.207Z,95705.41
2019-02-18T11:03:46.600Z,95700.65
2019-02-18T11:06:12.926Z,95681.69
2019-02-18T11:08:39.308Z,95695.31
2019-02-18T11:11:05.679Z,95684.14
2019-02-18T11:13:32.035Z,95683.30
2019-02-18T11:15:58.366Z,95679.97
2019-02-18T11:18:24.737Z,95673.55
2019-02-18T11:20:51.428Z,95673.70
2019-02-18T11:23:17.773Z,95670.72
2019-02-18T11:25:44.375Z,95663.95
2019-02-18T11:28:10.731Z,95666.55
2019-02-18T11:30:39.045Z,95659.65
2019-02-18T11:33:05.950Z,95660.63
2019-02-18T11:35:32.513Z,95661.98
2019-02-18T11:37:58.918Z,95661.28
2019-02-18T11:40:25.252Z,95650.45
2019-02-18T11:42:51.629Z,95652.20
2019-02-18T11:45:18.026Z,95646.11
2019-02-18T11:47:44.379Z,95643.45
2019-02-18T11:50:10.797Z,95642.38
2019-02-18T11:52:37.714Z,95641.69
2019-02-18T11:55:06.636Z,95634.17
2019-02-18T11:57:33.060Z,95632.28
2019-02-18T11:59:59.386Z,95628.41
2019-02-18T12:02:25.741Z,95615.45
2019-02-18T12:04:52.098Z,95619.23
2019-02-18T12:07:18.457Z,95610.28
2019-02-18T12:09:44.970Z,95609.45
2019-02-18T12:12:11.349Z,95602.55
2019-02-18T12:14:37.759Z,95602.89
2019-02-18T12:17:04.101Z,95595.02
2019-02-18T12:19:30.493Z,95593.63
2019-02-18T12:21:56.900Z,95588.11
2019-02-18T12:24:25.481Z,95586.03
2019-02-18T12:26:53.026Z,95588.70
2019-02-18T12:29:26.201Z,95582.01
2019-02-18T12:31:45.758Z,95584.46
2019-02-18T12:34:12.126Z,95578.28
2019-02-18T12:36:38.559Z,95572.42
2019-02-18T12:39:04.914Z,95565.92
2019-02-18T12:41:31.254Z,95573.06
2019-02-18T12:43:57.937Z,95559.02
2019-02-18T12:46:24.313Z,95557.95
2019-02-18T12:48:50.639Z,95564.02
2019-02-18T12:51:17.006Z,95563.44
2019-02-18T12:53:43.382Z,95559.34
2019-02-18T12:56:09.688Z,95551.36
2019-02-18T12:58:36.041Z,95552.42
2019-02-18T13:01:02.446Z,95556.28
2019-02-18T13:03:28.804Z,95549.33
2019-02-18T13:05:55.158Z,95547.99
2019-02-18T13:08:21.561Z,95542.70
2019-02-18T13:10:48.003Z,95545.05
2019-02-18T13:13:14.423Z,95549.73
2019-02-18T13:15:40.787Z,95545.88
2019-02-18T13:18:07.197Z,95546.09
2019-02-18T13:20:34.473Z,95540.20
2019-02-18T13:23:00.886Z,95542.36
2019-02-18T13:25:27.224Z,95542.23
2019-02-18T13:27:53.570Z,95538.86
2019-02-18T13:30:19.967Z,95538.83
2019-02-18T13:32:46.364Z,95535.91
2019-02-18T13:35:12.703Z,95534.53
2019-02-18T13:37:39.483Z,95518.98
2019-02-18T13:40:05.822Z,95527.53
2019-02-18T13:42:32.179Z,95524.52
2019-02-18T13:44:58.578Z,95525.64
2019-02-18T13:47:26.145Z,95524.16
2019-02-18T13:49:52.500Z,95503.01
2019-02-18T13:52:18.868Z,95524.02
2019-02-18T13:54:45.327Z,95522.97
2019-02-18T13:57:12.893Z,95521.44
2019-02-18T13:59:39.283Z,95522.96
2019-02-18T14:02:05.639Z,95518.77
2019-02-18T14:04:32.055Z,95516.88
2019-02-18T14:07:01.349Z,95515.22
2019-02-18T14:09:25.849Z,95516.55
2019-02-18T14:11:52.321Z,95518.57
2019-02-18T14:14:18.633Z,95508.67
2019-02-18T14:16:45.169Z,95504.34
2019-02-18T14:19:11.517Z,95511.13
2019-02-18T14:21:37.905Z,95509.23
2019-02-18T14:24:04.267Z,95504.56
2019-02-18T14:26:30.611Z,95495.30
2019-02-18T14:28:57.014Z,95501.39
2019-02-18T14:31:23.353Z,95503.97
2019-02-18T14:33:49.701Z,95509.73
2019-02-18T14:36:16.087Z,95505.86
2019-02-18T14:38:42.415Z,95504.34
2019-02-18T14:41:08.810Z,95505.76
2019-02-18T14:43:35.322Z,95505.63
2019-02-18T14:46:01.669Z,95502.84
2019-02-18T14:48:28.042Z,95498.24
2019-02-18T14:50:56.620Z,95499.89
2019-02-18T14:53:20.747Z,95508.44
2019-02-18T14:55:47.144Z,95503.67
2019-02-18T14:58:13.472Z,95508.94
2019-02-18T15:00:39.841Z,95501.42
2019-02-18T15:03:06.168Z,95503.74
2019-02-18T15:05:32.504Z,95493.80
2019-02-18T15:07:58.835Z,95496.23
2019-02-18T15:10:25.258Z,95502.72
2019-02-18T15:12:51.585Z,95503.41
2019-02-18T15:15:17.973Z,95497.09
2019-02-18T15:17:44.306Z,95497.31
2019-02-18T15:20:11.584Z,95499.44
2019-02-18T15:22:37.031Z,95497.42
2019-02-18T15:25:03.443Z,95497.42
2019-02-18T15:27:29.742Z,95492.88
2019-02-18T15:29:56.139Z,95489.31
2019-02-18T15:32:22.583Z,95491.42
2019-02-18T15:34:49.015Z,95493.91
2019-02-18T15:37:15.399Z,95499.30
2019-02-18T15:39:41.859Z,95493.31
2019-02-18T15:42:08.268Z,95500.36
2019-02-18T15:44:34.623Z,95499.30
2019-02-18T15:47:01.026Z,95495.33
2019-02-18T15:49:27.388Z,95509.86
2019-02-18T15:51:53.791Z,95501.66
2019-02-18T15:54:20.287Z,95508.34
2019-02-18T15:56:46.668Z,95506.92
2019-02-18T15:59:13.105Z,95504.93
2019-02-18T16:01:39.471Z,95507.61
2019-02-18T16:04:08.340Z,95507.05
2019-02-18T16:06:34.674Z,95507.05
2019-02-18T16:09:01.043Z,95510.33
2019-02-18T16:11:27.458Z,95510.92
2019-02-18T16:13:53.753Z,95507.52
2019-02-18T16:16:20.092Z,95511.75
2019-02-18T16:18:46.439Z,95508.20
2019-02-18T16:21:12.768Z,95508.44
2019-02-18T16:23:39.098Z,95506.33
2019-02-18T16:26:05.464Z,95504.66
2019-02-18T16:28:31.797Z,95509.03
2019-02-18T16:30:58.135Z,95508.30
2019-02-18T16:33:24.503Z,95508.54
2019-02-18T16:35:50.831Z,95515.91
2019-02-18T16:38:17.211Z,95516.28
2019-02-18T16:40:43.552Z,95525.78
2019-02-18T16:43:09.923Z,95523.06
2019-02-18T16:45:36.257Z,95523.43
2019-02-18T16:48:02.587Z,95526.14
2019-02-18T16:50:28.939Z,95530.34
2019-02-18T16:52:55.277Z,95529.18
2019-02-18T16:55:21.652Z,95530.80
2019-02-18T16:57:47.989Z,95529.82
2019-02-18T17:00:14.323Z,95537.61
2019-02-18T17:02:40.660Z,95536.65
2019-02-18T17:05:06.979Z,95538.30
2019-02-18T17:07:33.362Z,95545.08
2019-02-18T17:09:59.704Z,95543.33
2019-02-18T17:12:26.053Z,95542.92
2019-02-18T17:14:52.387Z,95543.60
2019-02-18T17:17:18.771Z,95542.09
2019-02-18T17:19:45.138Z,95543.97
2019-02-18T17:22:11.568Z,95550.64
2019-02-18T17:24:37.845Z,95552.03
2019-02-18T17:27:04.261Z,95558.37
2019-02-18T17:29:30.633Z,95559.76
2019-02-18T17:31:57.223Z,95554.23
2019-02-18T17:34:23.553Z,95557.30
2019-02-18T17:36:49.879Z,95561.86
2019-02-18T17:39:16.211Z,95561.95
2019-02-18T17:41:42.592Z,95563.69
2019-02-18T17:44:08.937Z,95564.22
2019-02-18T17:46:35.291Z,95564.15
2019-02-18T17:49:01.617Z,95564.88
2019-02-18T17:51:27.947Z,95565.67
2019-02-18T17:53:54.315Z,95569.89
2019-02-18T17:56:20.682Z,95569.44
2019-02-18T17:58:47.012Z,95571.06
2019-02-18T18:01:13.386Z,95573.39
2019-02-18T18:03:39.719Z,95572.45
2019-02-18T18:06:06.041Z,95573.84
2019-02-18T18:08:32.372Z,95576.85
2019-02-18T18:10:58.696Z,95576.15
2019-02-18T18:13:26.663Z,95574.73
2019-02-18T18:15:51.399Z,95578.23
2019-02-18T18:18:17.719Z,95577.53
2019-02-18T18:20:44.055Z,95581.62
2019-02-18T18:23:10.382Z,95585.58
2019-02-18T18:25:36.734Z,95583.59
2019-02-18T18:28:03.125Z,95584.62
2019-02-18T18:30:29.448Z,95584.72
2019-02-18T18:32:55.775Z,95584.02
2019-02-18T18:35:22.106Z,95582.82
2019-02-18T18:37:48.545Z,95582.70
2019-02-18T18:40:14.911Z,95584.91
2019-02-18T18:42:41.213Z,95587.03
2019-02-18T18:45:07.548Z,95587.86
2019-02-18T18:47:33.916Z,95585.00
2019-02-18T18:50:00.353Z,95585.00
2019-02-18T18:52:26.654Z,95593.44
2019-02-18T18:54:52.993Z,95597.86
2019-02-18T18:57:19.324Z,95600.69
2019-02-18T18:59:45.655Z,95604.30
2019-02-18T19:02:12.022Z,95606.05
2019-02-18T19:04:38.352Z,95596.37
2019-02-18T19:07:04.681Z,95601.54
2019-02-18T19:09:31.092Z,95602.48
2019-02-18T19:11:57.443Z,95604.33
2019-02-18T19:14:23.785Z,95606.66
2019-02-18T19:16:50.130Z,95605.00
2019-02-18T19:19:16.456Z,95607.23
2019-02-18T19:21:42.831Z,95607.33
2019-02-18T19:24:09.250Z,95609.08
2019-02-18T19:26:35.613Z,95606.62
2019-02-18T19:29:01.946Z,95609.66
2019-02-18T19:31:28.322Z,95611.16
2019-02-18T19:33:54.654Z,95612.45
2019-02-18T19:36:20.988Z,95612.08
2019-02-18T19:38:47.316Z,95614.31
2019-02-18T19:41:13.644Z,95614.50
2019-02-18T19:43:39.980Z,95613.58
2019-02-18T19:46:06.325Z,95620.02
2019-02-18T19:48:32.689Z,95619.65
2019-02-18T19:50:59.017Z,95618.23
2019-02-18T19:53:25.356Z,95619.15
2019-02-18T19:55:51.684Z,95617.98
2019-02-18T19:58:18.059Z,95620.55
2019-02-18T20:00:44.391Z,95619.36
2019-02-18T20:03:10.721Z,95610.84
2019-02-18T20:05:37.051Z,95617.24
2019-02-18T20:08:03.386Z,95616.53
2019-02-18T20:10:29.760Z,95617.81
2019-02-18T20:12:56.093Z,95611.01
2019-02-18T20:15:22.494Z,95605.14
2019-02-18T20:17:48.838Z,95609.47
2019-02-18T20:20:15.241Z,95612.59
2019-02-18T20:22:41.565Z,95603.48
2019-02-18T20:25:07.920Z,95615.17
2019-02-18T20:27:34.269Z,95609.30
2019-02-18T20:30:00.618Z,95608.59
2019-02-18T20:32:26.955Z,95610.34
2019-02-18T20:34:53.278Z,95611.63
2019-02-18T20:37:19.651Z,95615.58
2019-02-18T20:39:45.971Z,95607.15
2019-02-18T20:42:12.302Z,95613.38
2019-02-18T20:44:38.633Z,95606.32
2019-02-18T20:47:04.962Z,95611.02
2019-02-18T20:49:31.301Z,95611.67
2019-02-18T20:51:57.699Z,95613.55
2019-02-18T20:54:24.033Z,95614.70
2019-02-18T20:56:50.378Z,95607.45
2019-02-18T20:59:16.759Z,95613.80
2019-02-18T21:01:43.035Z,95609.30
2019-02-18T21:04:09.374Z,95610.39
2019-02-18T21:06:35.764Z,95611.97
2019-02-18T21:09:02.097Z,95612.55
2019-02-18T21:11:28.418Z,95614.66
2019-02-18T21:13:54.797Z,95612.17
2019-02-18T21:16:21.186Z,95614.04
2019-02-18T21:18:47.527Z,95612.95
2019-02-18T21:21:13.854Z,95614.28
2019-02-18T21:23:40.183Z,95612.80
2019-02-18T21:26:06.534Z,95619.64
2019-02-18T21:28:32.902Z,95616.19
2019-02-18T21:30:59.340Z,95615.47
2019-02-18T21:33:25.667Z,95618.25
2019-02-18T21:35:52.001Z,95623.68
2019-02-18T21:38:18.330Z,95618.28
2019-02-18T21:40:44.727Z,95620.68
2019-02-18T21:43:11.130Z,95616.19
2019-02-18T21:45:38.871Z,95618.87
2019-02-18T21:48:03.881Z,95621.02
2019-02-18T21:50:30.202Z,95627.08
2019-02-18T21:52:56.538Z,95620.39
2019-02-18T21:55:22.877Z,95623.98
2019-02-18T21:57:49.208Z,95618.47
2019-02-18T22:00:15.647Z,95628.13
2019-02-18T22:02:41.940Z,95625.75
2019-02-18T22:05:08.314Z,95627.49
2019-02-18T22:07:34.661Z,95629.35
2019-02-18T22:10:00.989Z,95631.28
2019-02-18T22:12:27.503Z,95628.91
2019-02-18T22:14:53.829Z,95631.67
2019-02-18T22:17:20.172Z,95630.73
2019-02-18T22:19:46.515Z,95635.80
2019-02-18T22:22:12.879Z,95637.36
2019-02-18T22:24:39.200Z,95633.81
2019-02-18T22:27:05.584Z,95635.92
2019-02-18T22:29:31.914Z,95637.03
2019-02-18T22:31:58.270Z,95644.63
2019-02-18T22:34:24.612Z,95637.53
2019-02-18T22:36:50.942Z,95634.70
2019-02-18T22:39:17.267Z,95636.18
2019-02-18T22:41:43.609Z,95635.84
2019-02-18T22:44:09.945Z,95636.83
2019-02-18T22:46:36.302Z,95639.31
2019-02-18T22:49:02.702Z,95642.42
2019-02-18T22:51:29.034Z,95641.14
2019-02-18T22:53:55.343Z,95644.28
2019-02-18T22:56:21.711Z,95642.81
2019-02-18T22:58:48.042Z,95643.00
2019-02-18T23:01:14.413Z,95644.28
2019-02-18T23:03:40.839Z,95644.73
2019-02-18T23:06:07.176Z,95642.73
2019-02-18T23:08:33.502Z,95648.78
2019-02-18T23:10:59.837Z,95647.98
2019-02-18T23:13:26.212Z,95650.63
2019-02-18T23:15:52.575Z,95650.37
2019-02-18T23:18:18.907Z,95643.56
2019-02-18T23:20:45.244Z,95648.06
2019-02-18T23:23:11.567Z,95645.50
2019-02-18T23:25:37.894Z,95652.83
2019-02-18T23:28:04.355Z,95652.83
2019-02-18T23:30:30.679Z,95648.90
2019-02-18T23:32:57.012Z,95643.68
2019-02-18T23:35:23.343Z,95648.06
2019-02-18T23:37:49.672Z,95645.16
2019-02-18T23:40:16.053Z,95649.46
2019-02-18T23:42:42.386Z,95651.28
2019-02-18T23:45:08.720Z,95642.02
2019-02-18T23:47:35.062Z,95641.94
2019-02-18T23:50:01.450Z,95639.56
2019-02-18T23:52:27.747Z,95634.42
2019-02-18T23:54:54.094Z,95626.71
2019-02-18T23:57:20.414Z,95624.41
2019-02-18T23:59:46.818Z,95629.09
